sensor_id;sensor_type;location;lat;lon;timestamp;P1;durP1;ratioP1;P2;durP2;ratioP2
12681;SDS011;6405;59.208;18.216;2022-12-26T00:00:35;9.60;;;4.90;;
12681;SDS011;6405;59.208;18.216;2022-12-26T00:03:03;10.50;;;4.70;;
12681;SDS011;6405;59.208;18.216;2022-12-26T00:05:33;10.73;;;5.17;;
12681;SDS011;6405;59.208;18.216;2022-12-26T00:08:02;14.03;;;6.03;;
12681;SDS011;6405;59.208;18.216;2022-12-26T00:10:30;13.27;;;5.37;;
12681;SDS011;6405;59.208;18.216;2022-12-26T00:12:58;12.13;;;5.47;;
12681;SDS011;6405;59.208;18.216;2022-12-26T00:15:25;11.03;;;5.50;;
12681;SDS011;6405;59.208;18.216;2022-12-26T00:17:52;11.60;;;5.47;;
12681;SDS011;6405;59.208;18.216;2022-12-26T00:20:20;11.17;;;5.50;;
12681;SDS011;6405;59.208;18.216;2022-12-26T00:22:48;10.80;;;5.67;;
12681;SDS011;6405;59.208;18.216;2022-12-26T00:25:13;9.17;;;5.27;;
12681;SDS011;6405;59.208;18.216;2022-12-26T00:27:40;15.47;;;5.37;;
12681;SDS011;6405;59.208;18.216;2022-12-26T00:30:07;10.13;;;5.07;;
12681;SDS011;6405;59.208;18.216;2022-12-26T00:32:34;11.17;;;5.27;;
12681;SDS011;6405;59.208;18.216;2022-12-26T00:35:01;8.87;;;5.33;;
12681;SDS011;6405;59.208;18.216;2022-12-26T00:37:27;8.73;;;3.97;;
12681;SDS011;6405;59.208;18.216;2022-12-26T00:39:53;14.60;;;5.27;;
12681;SDS011;6405;59.208;18.216;2022-12-26T00:42:21;9.70;;;5.40;;
12681;SDS011;6405;59.208;18.216;2022-12-26T00:44:48;9.83;;;4.83;;
12681;SDS011;6405;59.208;18.216;2022-12-26T00:47:13;7.77;;;3.80;;
12681;SDS011;6405;59.208;18.216;2022-12-26T00:49:40;9.27;;;4.70;;
12681;SDS011;6405;59.208;18.216;2022-12-26T00:52:07;8.73;;;5.53;;
12681;SDS011;6405;59.208;18.216;2022-12-26T00:54:34;12.00;;;5.30;;
12681;SDS011;6405;59.208;18.216;2022-12-26T00:57:01;10.07;;;4.80;;
12681;SDS011;6405;59.208;18.216;2022-12-26T00:59:27;9.20;;;5.33;;
12681;SDS011;6405;59.208;18.216;2022-12-26T01:01:54;12.50;;;5.50;;
12681;SDS011;6405;59.208;18.216;2022-12-26T01:04:22;10.40;;;4.53;;
12681;SDS011;6405;59.208;18.216;2022-12-26T01:06:49;11.17;;;5.40;;
12681;SDS011;6405;59.208;18.216;2022-12-26T01:09:15;12.30;;;5.07;;
12681;SDS011;6405;59.208;18.216;2022-12-26T01:11:42;10.87;;;5.40;;
12681;SDS011;6405;59.208;18.216;2022-12-26T01:14:10;8.20;;;4.50;;
12681;SDS011;6405;59.208;18.216;2022-12-26T01:16:39;10.20;;;5.27;;
12681;SDS011;6405;59.208;18.216;2022-12-26T01:19:09;14.40;;;5.93;;
12681;SDS011;6405;59.208;18.216;2022-12-26T01:21:37;10.40;;;5.17;;
12681;SDS011;6405;59.208;18.216;2022-12-26T01:24:05;12.50;;;6.83;;
12681;SDS011;6405;59.208;18.216;2022-12-26T01:26:33;14.23;;;5.77;;
12681;SDS011;6405;59.208;18.216;2022-12-26T01:29:00;12.67;;;5.63;;
12681;SDS011;6405;59.208;18.216;2022-12-26T01:31:27;12.67;;;5.67;;
12681;SDS011;6405;59.208;18.216;2022-12-26T01:33:53;9.83;;;4.10;;
12681;SDS011;6405;59.208;18.216;2022-12-26T01:36:20;10.47;;;5.73;;
12681;SDS011;6405;59.208;18.216;2022-12-26T01:38:47;9.60;;;5.87;;
12681;SDS011;6405;59.208;18.216;2022-12-26T01:41:14;7.03;;;4.13;;
12681;SDS011;6405;59.208;18.216;2022-12-26T01:43:52;14.57;;;6.87;;
12681;SDS011;6405;59.208;18.216;2022-12-26T01:46:25;10.83;;;5.97;;
12681;SDS011;6405;59.208;18.216;2022-12-26T01:48:59;9.77;;;5.93;;
12681;SDS011;6405;59.208;18.216;2022-12-26T01:51:32;13.67;;;5.83;;
12681;SDS011;6405;59.208;18.216;2022-12-26T01:54:03;11.60;;;5.47;;
12681;SDS011;6405;59.208;18.216;2022-12-26T01:56:35;11.37;;;5.83;;
12681;SDS011;6405;59.208;18.216;2022-12-26T01:59:08;13.23;;;4.93;;
12681;SDS011;6405;59.208;18.216;2022-12-26T02:01:40;8.97;;;5.13;;
12681;SDS011;6405;59.208;18.216;2022-12-26T02:04:09;10.27;;;5.10;;
12681;SDS011;6405;59.208;18.216;2022-12-26T02:07:00;7.50;;;4.83;;
12681;SDS011;6405;59.208;18.216;2022-12-26T02:09:29;8.97;;;4.90;;
12681;SDS011;6405;59.208;18.216;2022-12-26T02:12:38;8.07;;;3.87;;
12681;SDS011;6405;59.208;18.216;2022-12-26T02:14:50;6.80;;;4.20;;
12681;SDS011;6405;59.208;18.216;2022-12-26T02:17:17;8.37;;;4.40;;
12681;SDS011;6405;59.208;18.216;2022-12-26T02:19:55;4.80;;;2.80;;
12681;SDS011;6405;59.208;18.216;2022-12-26T02:25:25;6.43;;;3.77;;
12681;SDS011;6405;59.208;18.216;2022-12-26T02:30:58;6.40;;;3.17;;
12681;SDS011;6405;59.208;18.216;2022-12-26T02:36:23;6.87;;;4.33;;
12681;SDS011;6405;59.208;18.216;2022-12-26T02:41:56;7.47;;;4.60;;
12681;SDS011;6405;59.208;18.216;2022-12-26T02:53:25;10.63;;;5.23;;
12681;SDS011;6405;59.208;18.216;2022-12-26T02:56:23;13.00;;;5.83;;
12681;SDS011;6405;59.208;18.216;2022-12-26T02:59:32;11.90;;;6.30;;
12681;SDS011;6405;59.208;18.216;2022-12-26T03:02:45;12.07;;;5.97;;
12681;SDS011;6405;59.208;18.216;2022-12-26T03:05:38;9.17;;;5.30;;
12681;SDS011;6405;59.208;18.216;2022-12-26T03:08:53;12.67;;;7.10;;
12681;SDS011;6405;59.208;18.216;2022-12-26T03:11:43;13.40;;;6.37;;
12681;SDS011;6405;59.208;18.216;2022-12-26T03:14:34;12.57;;;7.40;;
12681;SDS011;6405;59.208;18.216;2022-12-26T03:17:07;9.83;;;5.90;;
12681;SDS011;6405;59.208;18.216;2022-12-26T03:19:54;11.47;;;7.00;;
12681;SDS011;6405;59.208;18.216;2022-12-26T03:22:40;14.50;;;7.07;;
12681;SDS011;6405;59.208;18.216;2022-12-26T03:28:29;15.73;;;6.33;;
12681;SDS011;6405;59.208;18.216;2022-12-26T03:30:58;12.20;;;6.13;;
12681;SDS011;6405;59.208;18.216;2022-12-26T03:33:33;16.20;;;6.90;;
12681;SDS011;6405;59.208;18.216;2022-12-26T03:39:19;15.87;;;8.20;;
12681;SDS011;6405;59.208;18.216;2022-12-26T03:51:43;11.80;;;6.83;;
12681;SDS011;6405;59.208;18.216;2022-12-26T03:54:44;13.60;;;7.03;;
12681;SDS011;6405;59.208;18.216;2022-12-26T03:57:42;10.63;;;5.87;;
12681;SDS011;6405;59.208;18.216;2022-12-26T04:00:33;13.80;;;7.23;;
12681;SDS011;6405;59.208;18.216;2022-12-26T04:03:20;13.87;;;6.50;;
12681;SDS011;6405;59.208;18.216;2022-12-26T04:06:07;13.30;;;7.13;;
12681;SDS011;6405;59.208;18.216;2022-12-26T04:09:12;13.50;;;6.17;;
12681;SDS011;6405;59.208;18.216;2022-12-26T04:12:19;13.77;;;6.70;;
12681;SDS011;6405;59.208;18.216;2022-12-26T04:15:15;18.03;;;7.23;;
12681;SDS011;6405;59.208;18.216;2022-12-26T04:18:14;12.67;;;5.70;;
12681;SDS011;6405;59.208;18.216;2022-12-26T04:24:07;11.40;;;6.53;;
12681;SDS011;6405;59.208;18.216;2022-12-26T04:26:58;13.07;;;5.60;;
12681;SDS011;6405;59.208;18.216;2022-12-26T04:29:47;9.83;;;6.40;;
12681;SDS011;6405;59.208;18.216;2022-12-26T04:32:43;11.23;;;5.80;;
12681;SDS011;6405;59.208;18.216;2022-12-26T04:38:30;14.20;;;5.80;;
12681;SDS011;6405;59.208;18.216;2022-12-26T04:41:22;10.17;;;5.47;;
12681;SDS011;6405;59.208;18.216;2022-12-26T04:44:11;11.83;;;5.20;;
12681;SDS011;6405;59.208;18.216;2022-12-26T04:46:39;6.83;;;4.23;;
12681;SDS011;6405;59.208;18.216;2022-12-26T04:49:10;10.27;;;4.33;;
12681;SDS011;6405;59.208;18.216;2022-12-26T04:51:58;9.03;;;4.50;;
12681;SDS011;6405;59.208;18.216;2022-12-26T04:54:26;11.67;;;4.80;;
12681;SDS011;6405;59.208;18.216;2022-12-26T04:56:54;8.10;;;4.60;;
12681;SDS011;6405;59.208;18.216;2022-12-26T04:59:21;8.53;;;4.20;;
12681;SDS011;6405;59.208;18.216;2022-12-26T05:01:49;8.67;;;4.60;;
12681;SDS011;6405;59.208;18.216;2022-12-26T05:04:35;7.57;;;4.00;;
12681;SDS011;6405;59.208;18.216;2022-12-26T05:07:26;7.40;;;4.40;;
12681;SDS011;6405;59.208;18.216;2022-12-26T05:10:16;10.47;;;4.30;;
12681;SDS011;6405;59.208;18.216;2022-12-26T05:12:45;7.93;;;4.30;;
12681;SDS011;6405;59.208;18.216;2022-12-26T05:15:11;8.77;;;4.80;;
12681;SDS011;6405;59.208;18.216;2022-12-26T05:17:40;10.30;;;5.27;;
12681;SDS011;6405;59.208;18.216;2022-12-26T05:20:26;10.93;;;6.47;;
12681;SDS011;6405;59.208;18.216;2022-12-26T05:22:56;9.20;;;5.53;;
12681;SDS011;6405;59.208;18.216;2022-12-26T05:25:44;10.43;;;5.83;;
12681;SDS011;6405;59.208;18.216;2022-12-26T05:28:29;11.50;;;6.07;;
12681;SDS011;6405;59.208;18.216;2022-12-26T05:31:17;10.93;;;6.30;;
12681;SDS011;6405;59.208;18.216;2022-12-26T05:33:43;12.47;;;6.70;;
12681;SDS011;6405;59.208;18.216;2022-12-26T05:36:31;12.30;;;6.87;;
12681;SDS011;6405;59.208;18.216;2022-12-26T05:39:11;12.30;;;6.30;;
12681;SDS011;6405;59.208;18.216;2022-12-26T05:41:38;12.00;;;6.60;;
12681;SDS011;6405;59.208;18.216;2022-12-26T05:44:09;14.10;;;7.10;;
12681;SDS011;6405;59.208;18.216;2022-12-26T05:46:36;13.40;;;7.20;;
12681;SDS011;6405;59.208;18.216;2022-12-26T05:49:03;13.83;;;7.20;;
12681;SDS011;6405;59.208;18.216;2022-12-26T05:51:30;12.67;;;6.77;;
12681;SDS011;6405;59.208;18.216;2022-12-26T05:53:57;14.17;;;7.67;;
12681;SDS011;6405;59.208;18.216;2022-12-26T05:56:25;13.87;;;7.47;;
12681;SDS011;6405;59.208;18.216;2022-12-26T05:58:55;14.87;;;7.20;;
12681;SDS011;6405;59.208;18.216;2022-12-26T06:01:23;13.00;;;6.97;;
12681;SDS011;6405;59.208;18.216;2022-12-26T06:03:52;13.90;;;6.63;;
12681;SDS011;6405;59.208;18.216;2022-12-26T06:06:21;11.97;;;6.30;;
12681;SDS011;6405;59.208;18.216;2022-12-26T06:08:49;11.80;;;6.50;;
12681;SDS011;6405;59.208;18.216;2022-12-26T06:11:16;13.90;;;6.53;;
12681;SDS011;6405;59.208;18.216;2022-12-26T06:13:45;12.63;;;6.07;;
12681;SDS011;6405;59.208;18.216;2022-12-26T06:16:13;12.13;;;6.20;;
12681;SDS011;6405;59.208;18.216;2022-12-26T06:18:41;11.70;;;5.67;;
12681;SDS011;6405;59.208;18.216;2022-12-26T06:21:12;11.93;;;5.50;;
12681;SDS011;6405;59.208;18.216;2022-12-26T06:23:40;14.30;;;6.50;;
12681;SDS011;6405;59.208;18.216;2022-12-26T06:26:07;13.57;;;5.87;;
12681;SDS011;6405;59.208;18.216;2022-12-26T06:28:34;10.87;;;6.00;;
12681;SDS011;6405;59.208;18.216;2022-12-26T06:31:12;11.20;;;5.27;;
12681;SDS011;6405;59.208;18.216;2022-12-26T06:33:45;11.30;;;5.93;;
12681;SDS011;6405;59.208;18.216;2022-12-26T06:36:13;6.60;;;4.13;;
12681;SDS011;6405;59.208;18.216;2022-12-26T06:38:42;10.83;;;5.73;;
12681;SDS011;6405;59.208;18.216;2022-12-26T06:41:11;10.77;;;5.50;;
12681;SDS011;6405;59.208;18.216;2022-12-26T06:43:39;12.87;;;5.77;;
12681;SDS011;6405;59.208;18.216;2022-12-26T06:46:06;8.93;;;4.87;;
12681;SDS011;6405;59.208;18.216;2022-12-26T06:48:38;10.83;;;5.43;;
12681;SDS011;6405;59.208;18.216;2022-12-26T06:51:05;8.73;;;4.50;;
12681;SDS011;6405;59.208;18.216;2022-12-26T06:53:36;10.77;;;5.37;;
12681;SDS011;6405;59.208;18.216;2022-12-26T06:56:07;9.80;;;4.80;;
12681;SDS011;6405;59.208;18.216;2022-12-26T06:58:38;8.60;;;4.73;;
12681;SDS011;6405;59.208;18.216;2022-12-26T07:01:06;8.77;;;5.23;;
12681;SDS011;6405;59.208;18.216;2022-12-26T07:03:36;8.10;;;5.13;;
12681;SDS011;6405;59.208;18.216;2022-12-26T07:06:07;11.13;;;5.43;;
12681;SDS011;6405;59.208;18.216;2022-12-26T07:08:58;7.83;;;4.53;;
12681;SDS011;6405;59.208;18.216;2022-12-26T07:11:31;9.97;;;5.03;;
12681;SDS011;6405;59.208;18.216;2022-12-26T07:13:59;11.17;;;5.07;;
12681;SDS011;6405;59.208;18.216;2022-12-26T07:16:26;7.87;;;3.87;;
12681;SDS011;6405;59.208;18.216;2022-12-26T07:18:54;9.07;;;4.33;;
12681;SDS011;6405;59.208;18.216;2022-12-26T07:21:22;9.00;;;4.63;;
12681;SDS011;6405;59.208;18.216;2022-12-26T07:23:49;13.10;;;4.57;;
12681;SDS011;6405;59.208;18.216;2022-12-26T07:26:16;7.53;;;3.33;;
12681;SDS011;6405;59.208;18.216;2022-12-26T07:28:43;7.40;;;3.90;;
12681;SDS011;6405;59.208;18.216;2022-12-26T07:31:15;9.53;;;4.10;;
12681;SDS011;6405;59.208;18.216;2022-12-26T07:33:45;9.67;;;3.70;;
12681;SDS011;6405;59.208;18.216;2022-12-26T07:36:12;6.47;;;3.67;;
12681;SDS011;6405;59.208;18.216;2022-12-26T07:38:39;7.93;;;3.50;;
12681;SDS011;6405;59.208;18.216;2022-12-26T07:41:05;7.90;;;4.03;;
12681;SDS011;6405;59.208;18.216;2022-12-26T07:43:49;6.83;;;3.47;;
12681;SDS011;6405;59.208;18.216;2022-12-26T07:46:17;8.40;;;3.87;;
12681;SDS011;6405;59.208;18.216;2022-12-26T07:48:44;6.70;;;4.40;;
12681;SDS011;6405;59.208;18.216;2022-12-26T07:51:11;8.67;;;3.17;;
12681;SDS011;6405;59.208;18.216;2022-12-26T07:53:39;8.20;;;3.67;;
12681;SDS011;6405;59.208;18.216;2022-12-26T07:56:06;6.93;;;3.47;;
12681;SDS011;6405;59.208;18.216;2022-12-26T07:58:34;6.07;;;3.40;;
12681;SDS011;6405;59.208;18.216;2022-12-26T08:01:01;8.27;;;3.93;;
12681;SDS011;6405;59.208;18.216;2022-12-26T08:03:30;7.37;;;3.70;;
12681;SDS011;6405;59.208;18.216;2022-12-26T08:05:57;8.17;;;4.10;;
12681;SDS011;6405;59.208;18.216;2022-12-26T08:08:24;7.30;;;4.27;;
12681;SDS011;6405;59.208;18.216;2022-12-26T08:10:57;8.70;;;3.87;;
12681;SDS011;6405;59.208;18.216;2022-12-26T08:13:26;9.13;;;4.67;;
12681;SDS011;6405;59.208;18.216;2022-12-26T08:15:53;7.10;;;4.17;;
12681;SDS011;6405;59.208;18.216;2022-12-26T08:18:21;7.87;;;3.97;;
12681;SDS011;6405;59.208;18.216;2022-12-26T08:20:48;8.27;;;4.37;;
12681;SDS011;6405;59.208;18.216;2022-12-26T08:23:14;8.57;;;4.63;;
12681;SDS011;6405;59.208;18.216;2022-12-26T08:25:41;10.30;;;4.83;;
12681;SDS011;6405;59.208;18.216;2022-12-26T08:28:07;13.13;;;5.80;;
12681;SDS011;6405;59.208;18.216;2022-12-26T08:30:37;16.30;;;6.00;;
12681;SDS011;6405;59.208;18.216;2022-12-26T08:33:06;11.50;;;6.17;;
12681;SDS011;6405;59.208;18.216;2022-12-26T08:35:33;12.57;;;5.43;;
12681;SDS011;6405;59.208;18.216;2022-12-26T08:38:01;10.30;;;5.30;;
12681;SDS011;6405;59.208;18.216;2022-12-26T08:40:29;8.97;;;5.10;;
12681;SDS011;6405;59.208;18.216;2022-12-26T08:42:56;11.07;;;4.80;;
12681;SDS011;6405;59.208;18.216;2022-12-26T08:45:22;10.73;;;4.67;;
12681;SDS011;6405;59.208;18.216;2022-12-26T08:47:49;8.83;;;4.80;;
12681;SDS011;6405;59.208;18.216;2022-12-26T08:50:17;12.50;;;5.17;;
12681;SDS011;6405;59.208;18.216;2022-12-26T08:52:43;9.30;;;4.57;;
12681;SDS011;6405;59.208;18.216;2022-12-26T08:55:09;5.57;;;3.50;;
12681;SDS011;6405;59.208;18.216;2022-12-26T08:57:36;7.20;;;3.87;;
12681;SDS011;6405;59.208;18.216;2022-12-26T09:00:03;12.70;;;6.20;;
12681;SDS011;6405;59.208;18.216;2022-12-26T09:02:31;13.07;;;5.17;;
12681;SDS011;6405;59.208;18.216;2022-12-26T09:04:58;13.10;;;4.93;;
12681;SDS011;6405;59.208;18.216;2022-12-26T09:07:24;11.50;;;5.33;;
12681;SDS011;6405;59.208;18.216;2022-12-26T09:09:50;12.57;;;6.90;;
12681;SDS011;6405;59.208;18.216;2022-12-26T09:12:17;21.57;;;7.70;;
12681;SDS011;6405;59.208;18.216;2022-12-26T09:14:44;13.53;;;7.43;;
12681;SDS011;6405;59.208;18.216;2022-12-26T09:17:13;17.33;;;8.13;;
12681;SDS011;6405;59.208;18.216;2022-12-26T09:19:40;12.47;;;7.23;;
12681;SDS011;6405;59.208;18.216;2022-12-26T09:22:07;13.00;;;7.83;;
12681;SDS011;6405;59.208;18.216;2022-12-26T09:24:53;18.57;;;7.43;;
12681;SDS011;6405;59.208;18.216;2022-12-26T09:27:20;18.97;;;9.30;;
12681;SDS011;6405;59.208;18.216;2022-12-26T09:29:47;17.00;;;7.43;;
12681;SDS011;6405;59.208;18.216;2022-12-26T09:32:14;15.93;;;8.60;;
12681;SDS011;6405;59.208;18.216;2022-12-26T09:34:41;21.70;;;8.73;;
12681;SDS011;6405;59.208;18.216;2022-12-26T09:37:08;15.80;;;8.40;;
12681;SDS011;6405;59.208;18.216;2022-12-26T09:39:35;20.00;;;9.80;;
12681;SDS011;6405;59.208;18.216;2022-12-26T09:42:11;21.17;;;9.90;;
12681;SDS011;6405;59.208;18.216;2022-12-26T09:45:07;17.27;;;8.87;;
12681;SDS011;6405;59.208;18.216;2022-12-26T09:48:10;23.97;;;11.47;;
12681;SDS011;6405;59.208;18.216;2022-12-26T09:50:48;24.77;;;11.20;;
12681;SDS011;6405;59.208;18.216;2022-12-26T09:53:18;24.27;;;12.93;;
12681;SDS011;6405;59.208;18.216;2022-12-26T09:56:07;25.27;;;11.63;;
12681;SDS011;6405;59.208;18.216;2022-12-26T09:58:41;29.40;;;12.87;;
12681;SDS011;6405;59.208;18.216;2022-12-26T10:01:22;23.77;;;11.57;;
12681;SDS011;6405;59.208;18.216;2022-12-26T10:03:55;25.10;;;11.17;;
12681;SDS011;6405;59.208;18.216;2022-12-26T10:06:25;23.13;;;11.93;;
12681;SDS011;6405;59.208;18.216;2022-12-26T10:17:00;25.07;;;12.40;;
12681;SDS011;6405;59.208;18.216;2022-12-26T10:25:14;27.70;;;11.37;;
12681;SDS011;6405;59.208;18.216;2022-12-26T10:27:47;25.00;;;11.10;;
12681;SDS011;6405;59.208;18.216;2022-12-26T10:30:19;22.37;;;12.33;;
12681;SDS011;6405;59.208;18.216;2022-12-26T10:32:50;23.37;;;11.47;;
12681;SDS011;6405;59.208;18.216;2022-12-26T10:35:27;25.47;;;11.07;;
12681;SDS011;6405;59.208;18.216;2022-12-26T10:37:59;24.23;;;11.10;;
12681;SDS011;6405;59.208;18.216;2022-12-26T10:40:33;19.67;;;10.87;;
12681;SDS011;6405;59.208;18.216;2022-12-26T10:46:09;22.23;;;10.77;;
12681;SDS011;6405;59.208;18.216;2022-12-26T10:48:58;21.10;;;10.63;;
12681;SDS011;6405;59.208;18.216;2022-12-26T10:51:25;24.77;;;11.77;;
12681;SDS011;6405;59.208;18.216;2022-12-26T10:53:53;21.07;;;10.47;;
12681;SDS011;6405;59.208;18.216;2022-12-26T10:56:21;23.50;;;11.03;;
12681;SDS011;6405;59.208;18.216;2022-12-26T10:58:57;19.43;;;10.60;;
12681;SDS011;6405;59.208;18.216;2022-12-26T11:03:55;21.97;;;10.10;;
12681;SDS011;6405;59.208;18.216;2022-12-26T11:06:25;18.53;;;10.50;;
12681;SDS011;6405;59.208;18.216;2022-12-26T11:08:55;20.03;;;8.97;;
12681;SDS011;6405;59.208;18.216;2022-12-26T11:11:23;19.57;;;10.43;;
12681;SDS011;6405;59.208;18.216;2022-12-26T11:13:54;23.50;;;9.93;;
12681;SDS011;6405;59.208;18.216;2022-12-26T11:16:25;15.70;;;8.10;;
12681;SDS011;6405;59.208;18.216;2022-12-26T11:18:57;26.27;;;9.87;;
12681;SDS011;6405;59.208;18.216;2022-12-26T11:21:25;15.40;;;9.50;;
12681;SDS011;6405;59.208;18.216;2022-12-26T11:24:16;23.50;;;9.30;;
12681;SDS011;6405;59.208;18.216;2022-12-26T11:26:47;17.87;;;9.67;;
12681;SDS011;6405;59.208;18.216;2022-12-26T11:29:16;17.40;;;8.33;;
12681;SDS011;6405;59.208;18.216;2022-12-26T11:31:53;16.93;;;9.00;;
12681;SDS011;6405;59.208;18.216;2022-12-26T11:34:30;18.43;;;9.33;;
12681;SDS011;6405;59.208;18.216;2022-12-26T11:37:03;14.83;;;8.50;;
12681;SDS011;6405;59.208;18.216;2022-12-26T11:39:33;17.30;;;7.50;;
12681;SDS011;6405;59.208;18.216;2022-12-26T11:42:08;18.40;;;8.87;;
12681;SDS011;6405;59.208;18.216;2022-12-26T11:44:43;16.97;;;8.63;;
12681;SDS011;6405;59.208;18.216;2022-12-26T11:47:27;16.47;;;8.50;;
12681;SDS011;6405;59.208;18.216;2022-12-26T11:50:12;15.13;;;8.50;;
12681;SDS011;6405;59.208;18.216;2022-12-26T11:58:18;16.67;;;8.57;;
12681;SDS011;6405;59.208;18.216;2022-12-26T12:03:22;18.90;;;8.40;;
12681;SDS011;6405;59.208;18.216;2022-12-26T12:12:21;16.67;;;8.53;;
12681;SDS011;6405;59.208;18.216;2022-12-26T12:15:02;15.60;;;8.63;;
12681;SDS011;6405;59.208;18.216;2022-12-26T12:17:34;16.67;;;8.43;;
12681;SDS011;6405;59.208;18.216;2022-12-26T12:31:29;17.37;;;9.07;;
12681;SDS011;6405;59.208;18.216;2022-12-26T12:34:06;15.13;;;8.63;;
12681;SDS011;6405;59.208;18.216;2022-12-26T12:37:06;13.60;;;7.30;;
12681;SDS011;6405;59.208;18.216;2022-12-26T12:39:51;14.27;;;7.53;;
12681;SDS011;6405;59.208;18.216;2022-12-26T12:45:34;16.37;;;7.33;;
12681;SDS011;6405;59.208;18.216;2022-12-26T12:48:14;15.70;;;7.63;;
12681;SDS011;6405;59.208;18.216;2022-12-26T12:51:14;16.97;;;7.90;;
12681;SDS011;6405;59.208;18.216;2022-12-26T12:54:10;12.80;;;7.80;;
12681;SDS011;6405;59.208;18.216;2022-12-26T13:05:04;14.37;;;7.60;;
12681;SDS011;6405;59.208;18.216;2022-12-26T13:07:43;16.30;;;7.03;;
12681;SDS011;6405;59.208;18.216;2022-12-26T13:10:20;19.13;;;7.90;;
12681;SDS011;6405;59.208;18.216;2022-12-26T13:12:56;15.70;;;8.07;;
12681;SDS011;6405;59.208;18.216;2022-12-26T13:15:39;17.00;;;7.93;;
12681;SDS011;6405;59.208;18.216;2022-12-26T13:18:11;15.70;;;8.40;;
12681;SDS011;6405;59.208;18.216;2022-12-26T13:20:47;13.87;;;8.00;;
12681;SDS011;6405;59.208;18.216;2022-12-26T13:23:19;12.47;;;7.17;;
12681;SDS011;6405;59.208;18.216;2022-12-26T13:26:15;19.03;;;8.93;;
12681;SDS011;6405;59.208;18.216;2022-12-26T13:28:51;15.03;;;8.83;;
12681;SDS011;6405;59.208;18.216;2022-12-26T13:31:34;14.90;;;8.40;;
12681;SDS011;6405;59.208;18.216;2022-12-26T13:34:02;15.43;;;7.90;;
12681;SDS011;6405;59.208;18.216;2022-12-26T13:41:47;15.77;;;8.77;;
12681;SDS011;6405;59.208;18.216;2022-12-26T13:44:43;14.77;;;8.73;;
12681;SDS011;6405;59.208;18.216;2022-12-26T13:47:42;19.53;;;9.53;;
12681;SDS011;6405;59.208;18.216;2022-12-26T13:55:56;14.67;;;9.27;;
12681;SDS011;6405;59.208;18.216;2022-12-26T14:07:33;16.97;;;9.73;;
12681;SDS011;6405;59.208;18.216;2022-12-26T14:10:20;14.33;;;8.70;;
12681;SDS011;6405;59.208;18.216;2022-12-26T14:13:03;14.83;;;8.63;;
12681;SDS011;6405;59.208;18.216;2022-12-26T14:24:28;18.83;;;9.80;;
12681;SDS011;6405;59.208;18.216;2022-12-26T14:29:54;17.97;;;9.30;;
12681;SDS011;6405;59.208;18.216;2022-12-26T14:43:06;18.87;;;9.63;;
12681;SDS011;6405;59.208;18.216;2022-12-26T14:55:55;21.33;;;12.57;;
12681;SDS011;6405;59.208;18.216;2022-12-26T15:21:00;27.10;;;14.03;;
12681;SDS011;6405;59.208;18.216;2022-12-26T15:37:19;31.70;;;16.33;;
12681;SDS011;6405;59.208;18.216;2022-12-26T15:40:23;31.40;;;15.50;;
12681;SDS011;6405;59.208;18.216;2022-12-26T15:48:34;28.00;;;15.13;;
12681;SDS011;6405;59.208;18.216;2022-12-26T15:51:37;28.47;;;15.03;;
12681;SDS011;6405;59.208;18.216;2022-12-26T15:57:03;27.20;;;15.10;;
12681;SDS011;6405;59.208;18.216;2022-12-26T16:00:03;28.63;;;15.73;;
12681;SDS011;6405;59.208;18.216;2022-12-26T16:11:12;26.47;;;15.27;;
12681;SDS011;6405;59.208;18.216;2022-12-26T16:13:58;26.93;;;15.30;;
12681;SDS011;6405;59.208;18.216;2022-12-26T16:16:29;27.50;;;14.77;;
12681;SDS011;6405;59.208;18.216;2022-12-26T16:19:13;27.70;;;15.63;;
12681;SDS011;6405;59.208;18.216;2022-12-26T16:21:51;28.63;;;15.43;;
12681;SDS011;6405;59.208;18.216;2022-12-26T16:24:40;30.57;;;15.40;;
12681;SDS011;6405;59.208;18.216;2022-12-26T16:27:07;30.53;;;16.20;;
12681;SDS011;6405;59.208;18.216;2022-12-26T16:29:59;29.50;;;15.33;;
12681;SDS011;6405;59.208;18.216;2022-12-26T16:32:34;27.87;;;14.53;;
12681;SDS011;6405;59.208;18.216;2022-12-26T16:35:02;26.67;;;15.73;;
12681;SDS011;6405;59.208;18.216;2022-12-26T16:37:30;25.03;;;14.70;;
12681;SDS011;6405;59.208;18.216;2022-12-26T16:42:31;28.83;;;15.37;;
12681;SDS011;6405;59.208;18.216;2022-12-26T16:45:00;31.33;;;16.00;;
12681;SDS011;6405;59.208;18.216;2022-12-26T16:47:27;29.73;;;15.53;;
12681;SDS011;6405;59.208;18.216;2022-12-26T16:49:57;32.60;;;14.90;;
12681;SDS011;6405;59.208;18.216;2022-12-26T16:52:35;30.17;;;15.13;;
12681;SDS011;6405;59.208;18.216;2022-12-26T16:57:49;28.53;;;14.93;;
12681;SDS011;6405;59.208;18.216;2022-12-26T17:00:19;25.90;;;14.53;;
12681;SDS011;6405;59.208;18.216;2022-12-26T17:02:47;26.07;;;14.70;;
12681;SDS011;6405;59.208;18.216;2022-12-26T17:05:25;30.17;;;15.17;;
12681;SDS011;6405;59.208;18.216;2022-12-26T17:07:55;30.67;;;15.57;;
12681;SDS011;6405;59.208;18.216;2022-12-26T17:10:29;32.53;;;15.03;;
12681;SDS011;6405;59.208;18.216;2022-12-26T17:13:02;27.30;;;13.93;;
12681;SDS011;6405;59.208;18.216;2022-12-26T17:15:35;28.03;;;14.60;;
12681;SDS011;6405;59.208;18.216;2022-12-26T17:26:30;28.30;;;15.43;;
12681;SDS011;6405;59.208;18.216;2022-12-26T17:28:57;30.40;;;15.10;;
12681;SDS011;6405;59.208;18.216;2022-12-26T17:31:33;24.70;;;11.90;;
12681;SDS011;6405;59.208;18.216;2022-12-26T17:34:16;27.63;;;15.63;;
12681;SDS011;6405;59.208;18.216;2022-12-26T17:36:51;30.17;;;16.23;;
12681;SDS011;6405;59.208;18.216;2022-12-26T17:39:19;26.90;;;14.53;;
12681;SDS011;6405;59.208;18.216;2022-12-26T17:41:49;33.00;;;16.33;;
12681;SDS011;6405;59.208;18.216;2022-12-26T17:44:32;31.70;;;15.80;;
12681;SDS011;6405;59.208;18.216;2022-12-26T17:47:13;29.20;;;14.83;;
12681;SDS011;6405;59.208;18.216;2022-12-26T17:49:41;27.80;;;14.77;;
12681;SDS011;6405;59.208;18.216;2022-12-26T17:52:08;29.57;;;15.73;;
12681;SDS011;6405;59.208;18.216;2022-12-26T17:54:38;27.43;;;15.33;;
12681;SDS011;6405;59.208;18.216;2022-12-26T17:57:07;27.40;;;14.40;;
12681;SDS011;6405;59.208;18.216;2022-12-26T17:59:41;29.77;;;14.43;;
12681;SDS011;6405;59.208;18.216;2022-12-26T18:02:09;29.57;;;16.60;;
12681;SDS011;6405;59.208;18.216;2022-12-26T18:04:35;31.03;;;15.30;;
12681;SDS011;6405;59.208;18.216;2022-12-26T18:07:04;25.70;;;14.60;;
12681;SDS011;6405;59.208;18.216;2022-12-26T18:09:31;24.17;;;14.17;;
12681;SDS011;6405;59.208;18.216;2022-12-26T18:11:59;24.63;;;14.10;;
12681;SDS011;6405;59.208;18.216;2022-12-26T18:14:26;26.93;;;15.70;;
12681;SDS011;6405;59.208;18.216;2022-12-26T18:16:53;22.83;;;14.03;;
12681;SDS011;6405;59.208;18.216;2022-12-26T18:19:21;27.50;;;13.67;;
12681;SDS011;6405;59.208;18.216;2022-12-26T18:21:48;25.37;;;14.27;;
12681;SDS011;6405;59.208;18.216;2022-12-26T18:24:14;22.60;;;13.27;;
12681;SDS011;6405;59.208;18.216;2022-12-26T18:26:43;26.30;;;14.27;;
12681;SDS011;6405;59.208;18.216;2022-12-26T18:29:10;28.33;;;15.90;;
12681;SDS011;6405;59.208;18.216;2022-12-26T18:31:37;20.80;;;12.87;;
12681;SDS011;6405;59.208;18.216;2022-12-26T18:34:05;24.23;;;12.43;;
12681;SDS011;6405;59.208;18.216;2022-12-26T18:36:34;22.50;;;12.63;;
12681;SDS011;6405;59.208;18.216;2022-12-26T18:39:05;21.80;;;11.87;;
12681;SDS011;6405;59.208;18.216;2022-12-26T18:41:32;14.87;;;9.83;;
12681;SDS011;6405;59.208;18.216;2022-12-26T18:44:00;17.20;;;9.87;;
12681;SDS011;6405;59.208;18.216;2022-12-26T18:46:27;15.83;;;9.10;;
12681;SDS011;6405;59.208;18.216;2022-12-26T18:48:55;14.30;;;7.70;;
12681;SDS011;6405;59.208;18.216;2022-12-26T18:51:23;12.10;;;7.33;;